Time;durP1;ratioP1;P1;durP2;ratioP2;P2;SDS_P1;SDS_P2;PMS_P1;PMS_P2;Temp;Humidity;BMP_temperature;BMP_pressure;BME280_temperature;BME280_humidity;BME280_pressure;Samples;Min_cycle;Max_cycle;Signal;HPM_P1;HPM_P2
2023/01/08 00:01:30;;;;;;;23.17;15.70;;;;;;;;;;4945790;28;20214;-80
2023/01/08 00:03:58;;;;;;;22.33;16.07;;;;;;;;;;4956707;28;20738;-76
2023/01/08 00:06:25;;;;;;;18.80;14.60;;;;;;;;;;4954830;28;20226;-77
2023/01/08 00:08:52;;;;;;;19.63;14.43;;;;;;;;;;4955842;28;20220;-79
2023/01/08 00:11:20;;;;;;;25.20;16.50;;;;;;;;;;4952723;28;20219;-79
2023/01/08 00:13:47;;;;;;;20.17;14.93;;;;;;;;;;4957796;28;20205;-77
2023/01/08 00:16:16;;;;;;;22.43;16.20;;;;;;;;;;4958926;28;20298;-79
2023/01/08 00:18:44;;;;;;;22.00;15.53;;;;;;;;;;4964987;28;20302;-77
2023/01/08 00:21:11;;;;;;;20.73;15.40;;;;;;;;;;4962567;28;20203;-77
2023/01/08 00:23:38;;;;;;;22.07;15.20;;;;;;;;;;4965687;28;20200;-77
2023/01/08 00:26:08;;;;;;;20.47;14.63;;;;;;;;;;4964363;28;20223;-76
2023/01/08 00:28:35;;;;;;;19.27;13.83;;;;;;;;;;4952601;28;20232;-79
2023/01/08 00:31:04;;;;;;;21.90;15.10;;;;;;;;;;4957814;28;20208;-77
2023/01/08 00:33:31;;;;;;;19.10;14.53;;;;;;;;;;4950437;28;20212;-78
2023/01/08 00:35:59;;;;;;;20.60;15.13;;;;;;;;;;4970189;28;20208;-80
2023/01/08 00:38:27;;;;;;;17.63;13.47;;;;;;;;;;4972685;28;20238;-75
2023/01/08 00:40:54;;;;;;;19.73;15.23;;;;;;;;;;4968310;28;20235;-77
2023/01/08 00:43:22;;;;;;;18.07;13.63;;;;;;;;;;4971584;28;20299;-80
2023/01/08 00:45:52;;;;;;;22.60;15.50;;;;;;;;;;4954522;28;20290;-77
2023/01/08 00:48:21;;;;;;;19.00;14.17;;;;;;;;;;4946692;28;20310;-77
2023/01/08 00:50:52;;;;;;;18.43;13.47;;;;;;;;;;4956581;28;20646;-76
2023/01/08 00:53:20;;;;;;;19.20;14.33;;;;;;;;;;4958172;28;22720;-76
2023/01/08 00:55:47;;;;;;;19.27;14.40;;;;;;;;;;4957742;28;20228;-77
2023/01/08 00:58:14;;;;;;;19.27;14.20;;;;;;;;;;4950226;28;20241;-79
2023/01/08 01:00:41;;;;;;;19.63;13.77;;;;;;;;;;4952928;28;20259;-79
2023/01/08 01:03:09;;;;;;;20.37;15.20;;;;;;;;;;4960635;28;20215;-78
2023/01/08 01:05:36;;;;;;;20.17;15.10;;;;;;;;;;4968248;28;20207;-79
2023/01/08 01:08:03;;;;;;;18.57;14.50;;;;;;;;;;4960580;28;20310;-77
2023/01/08 01:10:30;;;;;;;20.13;14.63;;;;;;;;;;4961279;28;20215;-75
2023/01/08 01:12:57;;;;;;;22.03;15.53;;;;;;;;;;4978567;28;20206;-77
2023/01/08 01:15:25;;;;;;;20.70;15.27;;;;;;;;;;4977828;28;20383;-77
2023/01/08 01:17:52;;;;;;;19.80;15.50;;;;;;;;;;4977670;28;20235;-77
2023/01/08 01:20:20;;;;;;;21.67;15.13;;;;;;;;;;4970097;28;20841;-78
2023/01/08 01:22:47;;;;;;;27.33;17.50;;;;;;;;;;4961823;28;20698;-77
2023/01/08 01:25:14;;;;;;;21.80;16.10;;;;;;;;;;4962109;28;20251;-77
2023/01/08 01:27:42;;;;;;;22.00;15.57;;;;;;;;;;4957172;28;20216;-81
2023/01/08 01:30:09;;;;;;;21.90;15.87;;;;;;;;;;4962094;28;20205;-78
2023/01/08 01:32:36;;;;;;;22.60;15.60;;;;;;;;;;4960039;28;20209;-78
2023/01/08 01:35:04;;;;;;;20.90;15.77;;;;;;;;;;4957907;28;20204;-78
2023/01/08 01:37:31;;;;;;;24.37;16.13;;;;;;;;;;4951023;28;20245;-77
2023/01/08 01:39:58;;;;;;;22.13;15.33;;;;;;;;;;4960351;28;20232;-79
2023/01/08 01:42:41;;;;;;;21.27;14.93;;;;;;;;;;4955299;28;20204;-77
2023/01/08 01:45:22;;;;;;;19.53;14.03;;;;;;;;;;4957070;28;20213;-78
2023/01/08 01:47:57;;;;;;;20.10;14.27;;;;;;;;;;4964249;28;20235;-77
2023/01/08 01:50:30;;;;;;;20.00;14.33;;;;;;;;;;4961533;28;20211;-78
2023/01/08 01:53:00;;;;;;;22.13;14.83;;;;;;;;;;4959231;28;20212;-77
2023/01/08 01:55:27;;;;;;;20.27;14.03;;;;;;;;;;4961692;28;20208;-78
2023/01/08 01:58:06;;;;;;;20.30;13.80;;;;;;;;;;4954894;28;20771;-77
2023/01/08 02:00:34;;;;;;;20.83;14.60;;;;;;;;;;4955219;28;20234;-76
2023/01/08 02:03:01;;;;;;;20.57;14.43;;;;;;;;;;4959942;28;20196;-80
2023/01/08 02:05:32;;;;;;;20.47;13.47;;;;;;;;;;4950934;28;20706;-77
2023/01/08 02:08:09;;;;;;;21.40;15.23;;;;;;;;;;4966227;28;20228;-77
2023/01/08 02:10:59;;;;;;;18.87;14.00;;;;;;;;;;4974510;28;20231;-78
2023/01/08 02:13:28;;;;;;;17.83;13.00;;;;;;;;;;4960230;28;20885;-76
2023/01/08 02:16:00;;;;;;;22.00;13.73;;;;;;;;;;4959052;28;20209;-77
2023/01/08 02:18:41;;;;;;;17.07;13.00;;;;;;;;;;4953747;28;20238;-76
2023/01/08 02:21:10;;;;;;;17.10;12.57;;;;;;;;;;4965724;28;20263;-76
2023/01/08 02:23:44;;;;;;;19.13;13.10;;;;;;;;;;4965235;28;20211;-78
2023/01/08 02:26:16;;;;;;;18.80;13.53;;;;;;;;;;4962423;28;20287;-77
2023/01/08 02:28:51;;;;;;;17.60;13.73;;;;;;;;;;4949259;28;20238;-80
2023/01/08 02:31:19;;;;;;;20.40;15.03;;;;;;;;;;4956899;28;20207;-78
2023/01/08 02:33:47;;;;;;;19.50;14.17;;;;;;;;;;4948832;28;20259;-77
2023/01/08 02:36:14;;;;;;;20.00;13.93;;;;;;;;;;4978169;28;20200;-77
2023/01/08 02:38:48;;;;;;;22.53;14.10;;;;;;;;;;4977748;28;20745;-77
2023/01/08 02:41:17;;;;;;;21.33;15.03;;;;;;;;;;4959497;28;20713;-79
2023/01/08 02:43:50;;;;;;;18.63;13.77;;;;;;;;;;4965170;28;20215;-78
2023/01/08 02:46:19;;;;;;;19.83;14.37;;;;;;;;;;4956620;28;20211;-79
2023/01/08 02:48:52;;;;;;;21.73;14.50;;;;;;;;;;4958174;28;22019;-75
2023/01/08 02:51:25;;;;;;;18.73;13.73;;;;;;;;;;4958689;28;20215;-76
2023/01/08 02:53:55;;;;;;;20.53;14.33;;;;;;;;;;4963628;28;20203;-78
2023/01/08 02:56:28;;;;;;;19.30;14.37;;;;;;;;;;4946186;28;20216;-77
2023/01/08 02:58:55;;;;;;;21.90;15.10;;;;;;;;;;4949003;28;20711;-77
2023/01/08 03:01:24;;;;;;;19.80;14.00;;;;;;;;;;4955227;28;20228;-77
2023/01/08 03:03:54;;;;;;;19.10;13.87;;;;;;;;;;4952442;28;20507;-79
2023/01/08 03:06:22;;;;;;;19.53;14.57;;;;;;;;;;4956592;28;20223;-80
2023/01/08 03:08:51;;;;;;;17.37;13.87;;;;;;;;;;4958362;28;20311;-75
2023/01/08 03:11:19;;;;;;;20.20;14.50;;;;;;;;;;4962620;28;20215;-78
2023/01/08 03:13:46;;;;;;;21.40;15.90;;;;;;;;;;4978830;28;20210;-77
2023/01/08 03:16:22;;;;;;;21.70;14.93;;;;;;;;;;4981044;28;20302;-78
2023/01/08 03:18:57;;;;;;;23.87;16.10;;;;;;;;;;4984322;28;20224;-77
2023/01/08 03:21:26;;;;;;;21.60;15.93;;;;;;;;;;4969772;28;20236;-78
2023/01/08 03:23:53;;;;;;;24.27;16.77;;;;;;;;;;4962532;28;21716;-78
2023/01/08 03:26:23;;;;;;;27.07;17.13;;;;;;;;;;4960899;28;20209;-80
2023/01/08 03:28:55;;;;;;;25.63;16.90;;;;;;;;;;4960014;28;20270;-77
2023/01/08 03:31:24;;;;;;;26.13;18.03;;;;;;;;;;4960170;28;20220;-78
2023/01/08 03:33:52;;;;;;;32.10;20.97;;;;;;;;;;4951212;28;20673;-75
2023/01/08 03:36:21;;;;;;;28.43;18.50;;;;;;;;;;4950989;28;20580;-78
2023/01/08 03:38:52;;;;;;;24.00;16.67;;;;;;;;;;4962618;28;20248;-78
2023/01/08 03:41:22;;;;;;;23.63;15.30;;;;;;;;;;4955903;28;20224;-78
2023/01/08 03:43:49;;;;;;;24.87;15.83;;;;;;;;;;4966107;28;20205;-77
2023/01/08 03:46:21;;;;;;;22.30;15.33;;;;;;;;;;4954250;28;20223;-77
2023/01/08 03:48:49;;;;;;;20.53;15.97;;;;;;;;;;4954917;28;20229;-78
2023/01/08 03:51:17;;;;;;;24.50;15.97;;;;;;;;;;4957912;28;20295;-77
2023/01/08 03:53:46;;;;;;;23.90;16.67;;;;;;;;;;4960896;28;20231;-77
2023/01/08 03:56:13;;;;;;;23.53;16.10;;;;;;;;;;4958303;28;20311;-79
2023/01/08 03:58:40;;;;;;;25.20;17.77;;;;;;;;;;4959934;28;20232;-76
2023/01/08 04:01:07;;;;;;;27.43;17.27;;;;;;;;;;4952180;28;20730;-78
2023/01/08 04:03:35;;;;;;;25.70;17.37;;;;;;;;;;4955507;28;20204;-79
2023/01/08 04:06:02;;;;;;;23.67;17.73;;;;;;;;;;4951822;28;20239;-76
2023/01/08 04:08:29;;;;;;;24.93;17.30;;;;;;;;;;4952910;28;20314;-80
2023/01/08 04:10:57;;;;;;;27.27;18.93;;;;;;;;;;4965844;28;20210;-76
2023/01/08 04:13:24;;;;;;;29.50;19.20;;;;;;;;;;4959089;28;20350;-80
2023/01/08 04:15:51;;;;;;;27.07;19.37;;;;;;;;;;4959681;28;20216;-79
2023/01/08 04:18:18;;;;;;;28.57;19.43;;;;;;;;;;4957368;28;20228;-75
2023/01/08 04:20:49;;;;;;;31.27;20.50;;;;;;;;;;4970729;28;20290;-78
2023/01/08 04:23:19;;;;;;;31.23;22.13;;;;;;;;;;4959360;28;20211;-77
2023/01/08 04:25:46;;;;;;;32.30;20.77;;;;;;;;;;4963227;28;20733;-78
2023/01/08 04:28:14;;;;;;;31.00;21.10;;;;;;;;;;4952416;28;20224;-79
2023/01/08 04:30:41;;;;;;;31.73;20.73;;;;;;;;;;4955966;28;20336;-78
2023/01/08 04:33:08;;;;;;;31.23;21.53;;;;;;;;;;4954041;28;23184;-73
2023/01/08 04:35:36;;;;;;;28.87;20.17;;;;;;;;;;4970773;28;20214;-78
2023/01/08 04:38:03;;;;;;;30.67;21.13;;;;;;;;;;4978115;28;20785;-76
2023/01/08 04:40:31;;;;;;;30.83;21.27;;;;;;;;;;4976476;28;20230;-78
2023/01/08 04:42:59;;;;;;;31.73;20.87;;;;;;;;;;4958406;28;20320;-79
2023/01/08 04:45:26;;;;;;;30.37;20.83;;;;;;;;;;4958041;28;20224;-80
2023/01/08 04:47:56;;;;;;;29.87;19.80;;;;;;;;;;4963340;28;20790;-79
2023/01/08 04:50:24;;;;;;;29.53;20.00;;;;;;;;;;4955680;28;20216;-75
2023/01/08 04:52:52;;;;;;;27.40;19.10;;;;;;;;;;4974252;28;20296;-80
2023/01/08 04:55:19;;;;;;;28.27;19.50;;;;;;;;;;4959423;28;21768;-78
2023/01/08 04:57:47;;;;;;;23.17;16.63;;;;;;;;;;4971281;28;20224;-77
2023/01/08 05:00:15;;;;;;;22.37;15.27;;;;;;;;;;4957954;28;20602;-81
2023/01/08 05:02:42;;;;;;;20.40;14.77;;;;;;;;;;4960119;28;20216;-77
2023/01/08 05:05:10;;;;;;;21.63;14.73;;;;;;;;;;4967077;28;20217;-76
2023/01/08 05:07:37;;;;;;;20.83;14.50;;;;;;;;;;4966203;28;20575;-78
2023/01/08 05:10:05;;;;;;;20.13;14.37;;;;;;;;;;4966196;28;20204;-75
2023/01/08 05:12:32;;;;;;;19.57;13.63;;;;;;;;;;4985026;28;20205;-78
2023/01/08 05:14:59;;;;;;;17.47;12.87;;;;;;;;;;4984519;28;20296;-77
2023/01/08 05:17:26;;;;;;;18.37;13.80;;;;;;;;;;4990422;28;20208;-79
2023/01/08 05:19:53;;;;;;;17.10;12.80;;;;;;;;;;4984942;28;20200;-77
2023/01/08 05:22:20;;;;;;;15.77;12.13;;;;;;;;;;4984383;28;20234;-78
2023/01/08 05:24:48;;;;;;;14.37;11.30;;;;;;;;;;4979527;28;20780;-75
2023/01/08 05:27:15;;;;;;;14.43;11.17;;;;;;;;;;4970633;28;20196;-77
2023/01/08 05:29:42;;;;;;;15.37;11.77;;;;;;;;;;4964983;28;20208;-80
2023/01/08 05:32:14;;;;;;;15.60;11.17;;;;;;;;;;4979630;28;20208;-79
2023/01/08 05:34:41;;;;;;;12.97;10.67;;;;;;;;;;4966304;28;20212;-76
2023/01/08 05:37:08;;;;;;;13.93;10.43;;;;;;;;;;4964659;28;23026;-77
2023/01/08 05:39:36;;;;;;;13.37;10.23;;;;;;;;;;4967479;28;20224;-76
2023/01/08 05:42:03;;;;;;;11.30;9.33;;;;;;;;;;4967217;28;20224;-80
2023/01/08 05:44:31;;;;;;;14.20;10.30;;;;;;;;;;4968787;28;20204;-78
2023/01/08 05:46:58;;;;;;;12.70;9.60;;;;;;;;;;4967403;28;20205;-78
2023/01/08 05:49:25;;;;;;;12.43;9.87;;;;;;;;;;4959212;28;20240;-78
2023/01/08 05:51:52;;;;;;;12.20;10.23;;;;;;;;;;4964322;28;20254;-76
2023/01/08 05:54:19;;;;;;;14.63;10.23;;;;;;;;;;4968075;28;20303;-76
2023/01/08 05:56:47;;;;;;;12.97;10.37;;;;;;;;;;4964465;28;20201;-81
2023/01/08 05:59:14;;;;;;;9.87;8.87;;;;;;;;;;4967796;28;20611;-77
2023/01/08 06:01:41;;;;;;;12.53;9.47;;;;;;;;;;4958892;28;20228;-77
2023/01/08 06:04:08;;;;;;;10.97;8.90;;;;;;;;;;4966808;28;20208;-77
2023/01/08 06:06:35;;;;;;;11.40;8.27;;;;;;;;;;4960885;28;20204;-78
2023/01/08 06:09:03;;;;;;;10.90;8.67;;;;;;;;;;4955039;28;20777;-77
2023/01/08 06:11:30;;;;;;;9.17;7.60;;;;;;;;;;4965512;28;20216;-78
2023/01/08 06:13:57;;;;;;;10.23;8.10;;;;;;;;;;4971004;28;20215;-77
2023/01/08 06:16:25;;;;;;;9.90;7.77;;;;;;;;;;4965395;28;20212;-75
2023/01/08 06:18:52;;;;;;;9.30;7.93;;;;;;;;;;4967570;28;20231;-77
2023/01/08 06:21:19;;;;;;;12.93;8.87;;;;;;;;;;4962381;28;20719;-79
2023/01/08 06:23:46;;;;;;;15.87;9.60;;;;;;;;;;4967585;28;20215;-77
2023/01/08 06:26:14;;;;;;;13.50;8.40;;;;;;;;;;4962853;28;20211;-79
2023/01/08 06:28:41;;;;;;;12.00;8.60;;;;;;;;;;4967217;28;20686;-77
2023/01/08 06:31:08;;;;;;;12.73;7.83;;;;;;;;;;4964138;28;20223;-79
2023/01/08 06:33:37;;;;;;;12.00;8.03;;;;;;;;;;4968116;28;20229;-78
2023/01/08 06:36:04;;;;;;;11.77;8.13;;;;;;;;;;4972652;28;20331;-76
2023/01/08 06:38:35;;;;;;;13.53;11.13;;;;;;;;;;4981811;28;20242;-76
2023/01/08 06:41:03;;;;;;;12.30;10.17;;;;;;;;;;4979627;28;20319;-77
2023/01/08 06:43:30;;;;;;;16.33;11.30;;;;;;;;;;4980376;28;20200;-76
2023/01/08 06:45:57;;;;;;;12.77;9.53;;;;;;;;;;4976624;28;20200;-75
2023/01/08 06:48:25;;;;;;;13.43;11.20;;;;;;;;;;4974598;28;20645;-77
2023/01/08 06:50:52;;;;;;;15.17;11.77;;;;;;;;;;4986067;28;20295;-81
2023/01/08 06:53:20;;;;;;;12.87;10.90;;;;;;;;;;4972658;28;20212;-75
2023/01/08 06:55:47;;;;;;;14.50;10.60;;;;;;;;;;4967514;28;21170;-78
2023/01/08 06:58:14;;;;;;;11.00;8.97;;;;;;;;;;4967512;28;20228;-78
2023/01/08 07:00:42;;;;;;;8.43;6.80;;;;;;;;;;4954580;28;20241;-78
2023/01/08 07:03:10;;;;;;;7.77;6.57;;;;;;;;;;4962309;28;20212;-75
2023/01/08 07:05:37;;;;;;;9.43;7.73;;;;;;;;;;4964420;28;20212;-77
2023/01/08 07:08:05;;;;;;;10.20;6.63;;;;;;;;;;4962765;28;20227;-78
2023/01/08 07:10:34;;;;;;;6.83;6.07;;;;;;;;;;4950678;28;20280;-78
2023/01/08 07:13:01;;;;;;;7.27;6.30;;;;;;;;;;4972845;28;20227;-76
2023/01/08 07:15:29;;;;;;;6.97;6.23;;;;;;;;;;4963075;28;20207;-77
2023/01/08 07:17:56;;;;;;;5.80;5.20;;;;;;;;;;4979553;28;20240;-75
2023/01/08 07:20:23;;;;;;;7.23;5.40;;;;;;;;;;4987634;28;20219;-76
2023/01/08 07:22:50;;;;;;;5.90;4.73;;;;;;;;;;4976084;28;20310;-78
2023/01/08 07:25:17;;;;;;;5.10;4.60;;;;;;;;;;4978569;28;20295;-78
2023/01/08 07:27:45;;;;;;;5.57;4.00;;;;;;;;;;4958218;28;20323;-77
2023/01/08 07:30:12;;;;;;;6.40;4.80;;;;;;;;;;4960026;28;20299;-78
2023/01/08 07:32:58;;;;;;;4.30;3.67;;;;;;;;;;4960094;28;20204;-78
2023/01/08 07:35:25;;;;;;;5.47;4.20;;;;;;;;;;4962561;28;20223;-79
2023/01/08 07:37:52;;;;;;;4.03;3.60;;;;;;;;;;4955013;28;20235;-75
2023/01/08 07:40:19;;;;;;;4.53;4.10;;;;;;;;;;4963770;28;20495;-77
2023/01/08 07:42:56;;;;;;;4.27;3.60;;;;;;;;;;4969429;28;20314;-78
2023/01/08 07:45:23;;;;;;;3.90;3.50;;;;;;;;;;4959179;28;20214;-79
2023/01/08 07:47:51;;;;;;;3.90;3.50;;;;;;;;;;4959573;28;20228;-77
2023/01/08 07:50:18;;;;;;;4.73;3.90;;;;;;;;;;4961216;28;20627;-80
2023/01/08 07:52:45;;;;;;;3.83;3.53;;;;;;;;;;4960739;28;20216;-79
2023/01/08 07:55:12;;;;;;;3.67;3.37;;;;;;;;;;4964247;28;20243;-76
2023/01/08 07:57:40;;;;;;;3.63;3.07;;;;;;;;;;4961764;28;20233;-80
2023/01/08 08:00:07;;;;;;;4.50;3.60;;;;;;;;;;4963065;28;20529;-76
2023/01/08 08:02:34;;;;;;;4.63;3.53;;;;;;;;;;4956047;28;20228;-78
2023/01/08 08:05:02;;;;;;;3.70;3.40;;;;;;;;;;4959922;28;20196;-76
2023/01/08 08:07:30;;;;;;;4.93;3.60;;;;;;;;;;4964219;28;20303;-77
2023/01/08 08:09:58;;;;;;;3.93;3.40;;;;;;;;;;4961899;28;20223;-79
2023/01/08 08:12:26;;;;;;;4.83;3.87;;;;;;;;;;4948526;28;20215;-80
2023/01/08 08:14:54;;;;;;;4.77;3.50;;;;;;;;;;4961124;28;20279;-78
2023/01/08 08:17:21;;;;;;;4.23;3.53;;;;;;;;;;4960732;28;20212;-76
2023/01/08 08:19:48;;;;;;;3.80;3.40;;;;;;;;;;4962534;28;20200;-78
2023/01/08 08:22:15;;;;;;;4.10;3.50;;;;;;;;;;4960828;28;21122;-76
2023/01/08 08:24:43;;;;;;;3.60;3.23;;;;;;;;;;4964540;28;20675;-78
2023/01/08 08:27:10;;;;;;;3.70;3.30;;;;;;;;;;4952798;28;20209;-77
2023/01/08 08:29:37;;;;;;;3.77;3.40;;;;;;;;;;4957006;28;20230;-78
2023/01/08 08:32:04;;;;;;;3.60;3.30;;;;;;;;;;4962474;28;20211;-77
2023/01/08 08:34:33;;;;;;;3.80;3.50;;;;;;;;;;4969434;28;20209;-76
2023/01/08 08:37:00;;;;;;;5.47;4.73;;;;;;;;;;4989729;28;20290;-76
2023/01/08 08:39:27;;;;;;;4.10;3.70;;;;;;;;;;4981148;28;20220;-77
2023/01/08 08:41:54;;;;;;;4.97;4.30;;;;;;;;;;4978975;28;20220;-76
2023/01/08 08:44:21;;;;;;;4.70;3.90;;;;;;;;;;4979772;28;20248;-78
2023/01/08 08:46:49;;;;;;;4.90;4.40;;;;;;;;;;4975450;28;20207;-76
2023/01/08 08:49:16;;;;;;;5.43;3.87;;;;;;;;;;4977673;28;20225;-78
2023/01/08 08:51:43;;;;;;;5.27;4.20;;;;;;;;;;4979562;28;20592;-77
2023/01/08 08:54:11;;;;;;;4.33;3.93;;;;;;;;;;4976119;28;20205;-76
2023/01/08 08:56:38;;;;;;;4.33;3.87;;;;;;;;;;4972970;28;20690;-78
2023/01/08 08:59:05;;;;;;;3.60;3.30;;;;;;;;;;4979399;28;20249;-78
2023/01/08 09:01:37;;;;;;;5.57;4.27;;;;;;;;;;4971831;28;20232;-76
2023/01/08 09:04:04;;;;;;;3.20;2.90;;;;;;;;;;4975312;28;20227;-78
2023/01/08 09:06:32;;;;;;;3.90;3.13;;;;;;;;;;4981871;28;20733;-77
2023/01/08 09:08:59;;;;;;;6.73;5.70;;;;;;;;;;4982100;28;20307;-78
2023/01/08 09:11:26;;;;;;;5.27;4.60;;;;;;;;;;4983660;28;20299;-76
2023/01/08 09:13:53;;;;;;;7.63;6.03;;;;;;;;;;4985172;28;20208;-74
2023/01/08 09:16:20;;;;;;;3.50;3.07;;;;;;;;;;4984672;28;20216;-77
2023/01/08 09:18:48;;;;;;;3.63;3.07;;;;;;;;;;4983566;28;20224;-77
2023/01/08 09:21:15;;;;;;;4.97;3.20;;;;;;;;;;4988138;28;20209;-78
2023/01/08 09:23:43;;;;;;;3.97;3.67;;;;;;;;;;4985577;28;20223;-76
2023/01/08 09:26:10;;;;;;;4.77;4.37;;;;;;;;;;4987615;28;20204;-78
2023/01/08 09:28:38;;;;;;;3.70;3.40;;;;;;;;;;4990432;28;20229;-77
2023/01/08 09:31:05;;;;;;;4.53;3.00;;;;;;;;;;4988184;28;20259;-80
2023/01/08 09:33:32;;;;;;;4.07;3.67;;;;;;;;;;4981214;28;20205;-75
2023/01/08 09:35:59;;;;;;;9.80;6.43;;;;;;;;;;4986253;28;20307;-78
2023/01/08 09:38:26;;;;;;;3.67;3.37;;;;;;;;;;4980110;28;20232;-78
2023/01/08 09:41:08;;;;;;;2.87;2.67;;;;;;;;;;4984242;28;20204;-75
2023/01/08 09:43:37;;;;;;;2.67;2.47;;;;;;;;;;4985960;28;20262;-78
2023/01/08 09:46:06;;;;;;;3.50;3.20;;;;;;;;;;4985422;28;20209;-76
2023/01/08 09:48:37;;;;;;;3.30;2.33;;;;;;;;;;4986777;28;20314;-77
2023/01/08 09:51:06;;;;;;;5.57;4.37;;;;;;;;;;4992267;28;20208;-77
2023/01/08 09:53:33;;;;;;;3.10;2.60;;;;;;;;;;4982396;28;20787;-78
2023/01/08 09:56:02;;;;;;;3.87;3.57;;;;;;;;;;4974917;28;20716;-75
2023/01/08 09:58:38;;;;;;;3.97;3.37;;;;;;;;;;4977225;28;20240;-78
2023/01/08 10:01:06;;;;;;;3.70;2.70;;;;;;;;;;4970115;28;20212;-77
2023/01/08 10:03:43;;;;;;;3.17;2.97;;;;;;;;;;4973886;28;20310;-77
2023/01/08 10:06:11;;;;;;;3.13;2.83;;;;;;;;;;4975303;28;20212;-75
2023/01/08 10:08:44;;;;;;;3.60;3.00;;;;;;;;;;4972055;28;20583;-74
2023/01/08 10:11:14;;;;;;;4.00;3.47;;;;;;;;;;4970770;28;20204;-77
2023/01/08 10:13:43;;;;;;;3.57;3.27;;;;;;;;;;4975038;28;20207;-77
2023/01/08 10:16:17;;;;;;;4.20;3.80;;;;;;;;;;4977809;28;24247;-76
2023/01/08 10:18:45;;;;;;;4.30;3.90;;;;;;;;;;4979903;28;20251;-77
2023/01/08 10:21:14;;;;;;;3.70;3.40;;;;;;;;;;4977480;28;20212;-74
2023/01/08 10:23:51;;;;;;;3.80;3.50;;;;;;;;;;4972715;28;20331;-78
2023/01/08 10:26:29;;;;;;;4.20;3.70;;;;;;;;;;4970927;28;20214;-74
2023/01/08 10:29:07;;;;;;;5.17;3.50;;;;;;;;;;4957044;28;20232;-77
2023/01/08 10:31:38;;;;;;;4.23;3.83;;;;;;;;;;4973672;28;20207;-78
2023/01/08 10:34:10;;;;;;;4.83;4.37;;;;;;;;;;4963405;28;20226;-77
2023/01/08 10:36:41;;;;;;;3.70;3.40;;;;;;;;;;4984421;28;20232;-77
2023/01/08 10:39:17;;;;;;;4.53;4.13;;;;;;;;;;4974614;28;20279;-76
2023/01/08 10:41:45;;;;;;;3.83;3.53;;;;;;;;;;4967500;28;20208;-76
2023/01/08 10:44:17;;;;;;;3.63;3.33;;;;;;;;;;4973869;28;20856;-77
2023/01/08 10:46:47;;;;;;;3.90;3.50;;;;;;;;;;4975471;28;20219;-76
2023/01/08 10:49:19;;;;;;;2.93;2.73;;;;;;;;;;4966670;28;20251;-75
2023/01/08 10:51:50;;;;;;;3.23;2.90;;;;;;;;;;4979045;28;20216;-76
2023/01/08 10:54:44;;;;;;;2.70;2.50;;;;;;;;;;4973442;28;20213;-74
2023/01/08 10:57:19;;;;;;;3.13;2.87;;;;;;;;;;4962066;28;20207;-77
2023/01/08 10:59:47;;;;;;;3.53;3.23;;;;;;;;;;4968809;28;20207;-75
2023/01/08 11:02:23;;;;;;;4.07;3.67;;;;;;;;;;4969358;28;21412;-77
2023/01/08 11:04:51;;;;;;;3.00;2.70;;;;;;;;;;4967337;28;20211;-74
2023/01/08 11:07:19;;;;;;;3.10;2.80;;;;;;;;;;4969193;28;20221;-77
2023/01/08 11:09:48;;;;;;;2.50;2.40;;;;;;;;;;4976194;28;20665;-76
2023/01/08 11:12:28;;;;;;;3.07;2.67;;;;;;;;;;4963526;28;20205;-78
2023/01/08 11:14:56;;;;;;;3.50;3.20;;;;;;;;;;4963139;28;20220;-79
2023/01/08 11:17:26;;;;;;;4.17;3.53;;;;;;;;;;4975196;28;20196;-75
2023/01/08 11:19:54;;;;;;;4.37;3.00;;;;;;;;;;4994970;28;20232;-80
2023/01/08 11:22:25;;;;;;;3.20;2.60;;;;;;;;;;4988184;28;20343;-76
2023/01/08 11:24:53;;;;;;;2.90;2.70;;;;;;;;;;4976473;28;20204;-76
2023/01/08 11:27:21;;;;;;;3.97;3.53;;;;;;;;;;4970760;28;20200;-74
2023/01/08 11:30:03;;;;;;;5.90;3.77;;;;;;;;;;4971849;28;20218;-76
2023/01/08 11:32:39;;;;;;;7.90;5.93;;;;;;;;;;4969941;28;20255;-76
2023/01/08 11:35:08;;;;;;;4.37;2.80;;;;;;;;;;4965724;28;20204;-76
2023/01/08 11:37:38;;;;;;;3.90;2.93;;;;;;;;;;4968593;28;23353;-76
2023/01/08 11:40:16;;;;;;;24.17;9.87;;;;;;;;;;4968419;28;20204;-76
2023/01/08 11:42:49;;;;;;;6.00;4.50;;;;;;;;;;4980552;28;20878;-74
2023/01/08 11:45:32;;;;;;;2.93;2.70;;;;;;;;;;4963439;28;20664;-74
2023/01/08 11:48:18;;;;;;;3.83;3.43;;;;;;;;;;4969118;28;21657;-74
2023/01/08 11:50:51;;;;;;;3.60;3.30;;;;;;;;;;4966492;28;20208;-75
2023/01/08 11:53:25;;;;;;;4.93;4.03;;;;;;;;;;4974048;28;20222;-76
2023/01/08 11:56:02;;;;;;;2.47;2.37;;;;;;;;;;4971844;28;20212;-74
2023/01/08 11:58:35;;;;;;;2.90;2.60;;;;;;;;;;4969629;28;20227;-76
2023/01/08 12:01:05;;;;;;;3.30;3.00;;;;;;;;;;4975852;28;20207;-76
2023/01/08 12:03:52;;;;;;;2.50;2.30;;;;;;;;;;4977087;28;20721;-76
2023/01/08 12:06:19;;;;;;;2.63;2.43;;;;;;;;;;4968279;28;20255;-76
2023/01/08 12:09:24;;;;;;;3.07;2.87;;;;;;;;;;4963940;28;20714;-75
2023/01/08 12:12:05;;;;;;;2.27;2.13;;;;;;;;;;4907864;29;20244;-75
2023/01/08 12:14:38;;;;;;;3.47;2.63;;;;;;;;;;4906985;29;20209;-75
2023/01/08 12:17:24;;;;;;;2.20;1.93;;;;;;;;;;4951859;28;20233;-77
2023/01/08 12:19:57;;;;;;;2.77;2.57;;;;;;;;;;4980643;28;20207;-76
2023/01/08 12:22:27;;;;;;;2.30;2.10;;;;;;;;;;4968322;28;20314;-76
2023/01/08 12:25:13;;;;;;;2.07;1.97;;;;;;;;;;4976065;28;20282;-77
2023/01/08 12:27:45;;;;;;;2.40;2.00;;;;;;;;;;4987182;28;20797;-76
2023/01/08 12:30:32;;;;;;;2.07;1.97;;;;;;;;;;4992706;28;20290;-77
2023/01/08 12:33:01;;;;;;;1.90;1.80;;;;;;;;;;4978017;28;20232;-74
2023/01/08 12:35:35;;;;;;;1.83;1.73;;;;;;;;;;4978044;28;20218;-76
2023/01/08 12:38:05;;;;;;;1.87;1.77;;;;;;;;;;4995146;28;20229;-76
2023/01/08 12:40:34;;;;;;;1.90;1.80;;;;;;;;;;4984993;28;20204;-76
2023/01/08 12:43:06;;;;;;;2.00;1.83;;;;;;;;;;4983861;28;20236;-77
2023/01/08 12:45:36;;;;;;;4.60;2.87;;;;;;;;;;4980158;28;20288;-76
2023/01/08 12:48:24;;;;;;;2.13;2.00;;;;;;;;;;4980379;28;20746;-76
2023/01/08 12:50:59;;;;;;;1.83;1.73;;;;;;;;;;4980137;28;20209;-77
2023/01/08 12:53:26;;;;;;;2.10;1.80;;;;;;;;;;4981034;28;20204;-77
2023/01/08 12:56:12;;;;;;;1.93;1.83;;;;;;;;;;4964477;28;20867;-76
2023/01/08 12:58:58;;;;;;;2.00;1.90;;;;;;;;;;4983427;28;20769;-78
2023/01/08 13:01:28;;;;;;;1.90;1.60;;;;;;;;;;4978317;28;20234;-76
2023/01/08 13:03:57;;;;;;;1.80;1.70;;;;;;;;;;4973038;28;20679;-77
2023/01/08 13:06:25;;;;;;;2.13;2.03;;;;;;;;;;4981586;28;20307;-77
2023/01/08 13:08:56;;;;;;;3.80;2.50;;;;;;;;;;4977520;28;20220;-80
2023/01/08 13:11:31;;;;;;;4.20;3.80;;;;;;;;;;4980406;28;20236;-77
2023/01/08 13:14:00;;;;;;;2.53;2.33;;;;;;;;;;4962345;28;20206;-78
2023/01/08 13:16:27;;;;;;;2.50;2.30;;;;;;;;;;4974547;28;20223;-77
2023/01/08 13:18:59;;;;;;;2.70;2.50;;;;;;;;;;4979546;28;20235;-78
2023/01/08 13:21:28;;;;;;;1.90;1.80;;;;;;;;;;4984654;28;20208;-78
2023/01/08 13:24:05;;;;;;;2.53;2.33;;;;;;;;;;4984135;28;20307;-78
2023/01/08 13:26:34;;;;;;;2.30;2.10;;;;;;;;;;4980454;28;20246;-78
2023/01/08 13:29:20;;;;;;;2.60;2.00;;;;;;;;;;4995565;28;20251;-79
2023/01/08 13:31:47;;;;;;;2.40;2.20;;;;;;;;;;4990224;28;20264;-79
2023/01/08 13:34:33;;;;;;;2.50;2.07;;;;;;;;;;4996616;28;20216;-78
2023/01/08 13:37:00;;;;;;;2.50;1.93;;;;;;;;;;4987373;28;20208;-79
2023/01/08 13:39:32;;;;;;;2.03;1.90;;;;;;;;;;4981281;28;20239;-78
2023/01/08 13:42:01;;;;;;;2.10;2.00;;;;;;;;;;4989753;28;20290;-79
2023/01/08 13:44:29;;;;;;;2.40;2.30;;;;;;;;;;4986873;28;20267;-77
2023/01/08 13:46:58;;;;;;;2.17;2.00;;;;;;;;;;4980595;28;20197;-78
2023/01/08 13:49:33;;;;;;;2.70;2.50;;;;;;;;;;4969610;28;20323;-77
2023/01/08 13:52:00;;;;;;;2.30;2.20;;;;;;;;;;4994345;28;20665;-77
2023/01/08 13:54:31;;;;;;;2.03;1.93;;;;;;;;;;4984850;28;20295;-78
2023/01/08 13:57:18;;;;;;;1.83;1.73;;;;;;;;;;4975363;28;20239;-77
2023/01/08 13:59:48;;;;;;;1.80;1.70;;;;;;;;;;4977294;28;20880;-77
2023/01/08 14:02:23;;;;;;;2.13;2.03;;;;;;;;;;4986625;28;20724;-79
2023/01/08 14:04:53;;;;;;;1.80;1.70;;;;;;;;;;4987972;28;20201;-78
2023/01/08 14:07:20;;;;;;;2.40;1.90;;;;;;;;;;4986439;28;20244;-78
2023/01/08 14:09:48;;;;;;;2.70;2.50;;;;;;;;;;4997498;28;20196;-78
2023/01/08 14:12:20;;;;;;;2.07;1.93;;;;;;;;;;4991822;28;20215;-77
2023/01/08 14:14:49;;;;;;;2.23;2.10;;;;;;;;;;4991390;28;20204;-77
2023/01/08 14:17:17;;;;;;;1.70;1.60;;;;;;;;;;4987293;28;21321;-75
2023/01/08 14:19:44;;;;;;;1.73;1.63;;;;;;;;;;4990587;28;20588;-76
2023/01/08 14:22:19;;;;;;;2.10;2.00;;;;;;;;;;4994699;28;20247;-76
2023/01/08 14:24:51;;;;;;;2.00;1.90;;;;;;;;;;4989825;28;20812;-77
2023/01/08 14:27:22;;;;;;;1.73;1.63;;;;;;;;;;4985863;28;20208;-77
2023/01/08 14:29:50;;;;;;;2.10;2.00;;;;;;;;;;4975749;28;20295;-77
2023/01/08 14:32:19;;;;;;;1.70;1.60;;;;;;;;;;4980920;28;20200;-76
2023/01/08 14:34:47;;;;;;;2.40;2.20;;;;;;;;;;4978223;28;20201;-77
2023/01/08 14:37:15;;;;;;;3.07;2.77;;;;;;;;;;4976815;28;20220;-77
2023/01/08 14:39:44;;;;;;;5.27;4.77;;;;;;;;;;4971148;28;20232;-77
2023/01/08 14:45:07;;;;;;;3.20;3.00;;;;;;;;;;4965290;28;20349;-78
2023/01/08 14:47:39;;;;;;;3.40;3.20;;;;;;;;;;4951591;28;20204;-78
2023/01/08 14:50:08;;;;;;;2.77;2.53;;;;;;;;;;4968571;28;20212;-79